createdAt,value
2022-11-10T00:02:24.589Z,41.88
2022-11-10T00:05:11.482Z,37.03
2022-11-10T00:08:02.991Z,37.03
2022-11-10T00:10:58.809Z,34.03
2022-11-10T00:14:02.784Z,36.80
2022-11-10T00:17:05.269Z,31.67
2022-11-10T00:19:51.711Z,29.70
2022-11-10T00:22:39.744Z,31.95
2022-11-10T00:25:28.867Z,36.03
2022-11-10T00:28:15.642Z,35.40
2022-11-10T00:31:06.982Z,36.63
2022-11-10T00:33:53.308Z,38.88
2022-11-10T00:36:40.279Z,29.90
2022-11-10T00:39:28.083Z,30.58
2022-11-10T00:42:16.338Z,27.10
2022-11-10T00:45:03.165Z,34.63
2022-11-10T00:47:49.633Z,31.33
2022-11-10T00:50:36.256Z,33.85
2022-11-10T00:53:23.277Z,28.42
2022-11-10T00:56:10.223Z,31.48
2022-11-10T00:58:58.128Z,28.50
2022-11-10T01:01:44.806Z,41.88
2022-11-10T01:04:31.460Z,32.78
2022-11-10T01:07:18.101Z,41.08
2022-11-10T01:10:05.578Z,37.63
2022-11-10T01:12:52.029Z,37.85
2022-11-10T01:15:41.671Z,33.28
2022-11-10T01:18:28.057Z,37.20
2022-11-10T01:21:14.793Z,33.17
2022-11-10T01:24:01.694Z,30.10
2022-11-10T01:26:48.259Z,28.00
2022-11-10T01:29:35.143Z,30.75
2022-11-10T01:32:23.267Z,29.00
2022-11-10T01:35:10.168Z,31.55
2022-11-10T01:37:56.557Z,32.53
2022-11-10T01:40:43.287Z,28.83
2022-11-10T01:43:30.329Z,30.98
2022-11-10T01:46:17.162Z,22.10
2022-11-10T01:49:06.015Z,30.40
2022-11-10T01:51:57.704Z,30.10
2022-11-10T01:54:48.180Z,27.02
2022-11-10T01:57:36.726Z,30.60
2022-11-10T02:00:24.045Z,31.58
2022-11-10T02:03:14.697Z,30.48
2022-11-10T02:06:02.835Z,26.88
2022-11-10T02:08:51.157Z,20.63
2022-11-10T02:11:39.654Z,25.23
2022-11-10T02:14:26.477Z,26.40
2022-11-10T02:17:14.517Z,25.48
2022-11-10T02:20:04.568Z,20.25
2022-11-10T02:22:52.327Z,21.48
2022-11-10T02:25:38.883Z,22.42
2022-11-10T02:28:27.163Z,24.15
2022-11-10T02:31:13.687Z,24.98
2022-11-10T02:34:00.607Z,24.48
2022-11-10T02:36:46.995Z,28.15
2022-11-10T02:39:35.060Z,24.40
2022-11-10T02:42:21.881Z,26.45
2022-11-10T02:45:09.273Z,21.02
2022-11-10T02:47:56.248Z,24.67
2022-11-10T02:50:43.043Z,23.67
2022-11-10T02:53:29.463Z,22.25
2022-11-10T02:56:17.140Z,20.73
2022-11-10T02:59:04.803Z,20.02
2022-11-10T03:01:51.353Z,16.92
2022-11-10T03:04:38.078Z,19.70
2022-11-10T03:07:24.795Z,23.00
2022-11-10T03:10:11.691Z,19.58
2022-11-10T03:13:01.199Z,24.67
2022-11-10T03:15:48.489Z,20.08
2022-11-10T03:18:35.247Z,24.02
2022-11-10T03:21:21.874Z,23.35
2022-11-10T03:24:08.775Z,28.42
2022-11-10T03:26:55.153Z,24.83
2022-11-10T03:29:43.201Z,29.08
2022-11-10T03:32:29.672Z,26.17
2022-11-10T03:35:16.444Z,20.73
2022-11-10T03:38:03.051Z,20.73
2022-11-10T03:41:17.545Z,21.05
2022-11-10T03:43:58.184Z,20.63
2022-11-10T03:46:51.311Z,21.33
2022-11-10T03:49:38.385Z,28.60
2022-11-10T03:52:25.188Z,24.38
2022-11-10T03:55:13.216Z,31.67
2022-11-10T03:58:03.153Z,27.42
2022-11-10T04:00:49.477Z,29.95
2022-11-10T04:03:37.542Z,31.25
2022-11-10T04:06:42.397Z,30.13
2022-11-10T04:09:28.926Z,31.98
2022-11-10T04:12:33.206Z,37.83
2022-11-10T04:15:37.937Z,29.73
2022-11-10T04:18:29.513Z,27.92
2022-11-10T04:21:18.673Z,29.35
2022-11-10T04:24:05.486Z,31.95
2022-11-10T04:26:52.060Z,28.30
2022-11-10T04:29:38.754Z,31.25
2022-11-10T04:32:25.387Z,30.08
2022-11-10T04:35:12.264Z,30.33
2022-11-10T04:38:01.373Z,30.20
2022-11-10T04:40:48.098Z,22.27
2022-11-10T04:43:34.683Z,24.98
2022-11-10T04:46:25.733Z,23.00
2022-11-10T04:49:12.428Z,34.72
2022-11-10T04:51:59.003Z,22.98
2022-11-10T04:54:46.845Z,23.75
2022-11-10T04:57:33.551Z,27.80
2022-11-10T05:00:20.980Z,20.40
2022-11-10T05:03:09.714Z,27.20
2022-11-10T05:05:56.460Z,26.08
2022-11-10T05:08:44.287Z,33.10
2022-11-10T05:11:32.260Z,32.97
2022-11-10T05:14:18.950Z,27.50
2022-11-10T05:17:05.623Z,27.75
2022-11-10T05:19:52.122Z,32.55
2022-11-10T05:22:38.775Z,32.40
2022-11-10T05:25:28.355Z,26.90
2022-11-10T05:28:16.396Z,28.35
2022-11-10T05:31:02.805Z,32.97
2022-11-10T05:33:49.476Z,30.60
2022-11-10T05:36:36.158Z,28.50
2022-11-10T05:39:22.696Z,30.10
2022-11-10T05:42:09.603Z,32.95
2022-11-10T05:44:57.327Z,28.13
2022-11-10T05:47:43.994Z,28.00
2022-11-10T05:50:30.785Z,27.23
2022-11-10T05:53:18.466Z,32.28
2022-11-10T05:56:05.473Z,29.50
2022-11-10T05:58:52.077Z,26.15
2022-11-10T06:01:40.057Z,31.00
2022-11-10T06:04:26.855Z,30.40
2022-11-10T06:07:13.485Z,24.80
2022-11-10T06:10:00.131Z,34.35
2022-11-10T06:12:46.853Z,32.65
2022-11-10T06:15:35.252Z,31.75
2022-11-10T06:18:23.168Z,32.35
2022-11-10T06:21:09.867Z,33.53
2022-11-10T06:23:56.486Z,30.67
2022-11-10T06:26:43.173Z,34.55
2022-11-10T06:29:29.876Z,33.50
2022-11-10T06:32:16.889Z,32.03
2022-11-10T06:35:05.236Z,30.35
2022-11-10T06:37:59.641Z,35.13
2022-11-10T06:40:46.354Z,33.05
2022-11-10T06:43:33.186Z,33.70
2022-11-10T06:46:19.985Z,34.15
2022-11-10T06:49:06.537Z,29.83
2022-11-10T06:51:54.557Z,35.67
2022-11-10T06:54:41.138Z,37.65
2022-11-10T06:57:28.102Z,28.17
2022-11-10T07:00:16.159Z,32.97
2022-11-10T07:03:03.877Z,27.25
2022-11-10T07:05:50.523Z,36.13
2022-11-10T07:08:38.258Z,34.88
2022-11-10T07:11:24.799Z,23.67
2022-11-10T07:14:11.673Z,38.58
2022-11-10T07:16:58.468Z,39.42
2022-11-10T07:19:45.172Z,27.67
2022-11-10T07:22:31.726Z,39.13
2022-11-10T07:25:19.735Z,33.53
2022-11-10T07:28:10.367Z,35.20
2022-11-10T07:30:56.880Z,33.28
2022-11-10T07:33:43.997Z,37.92
2022-11-10T07:36:30.652Z,29.80
2022-11-10T07:39:17.528Z,37.22
2022-11-10T07:42:05.809Z,26.40
2022-11-10T07:44:52.384Z,32.22
2022-11-10T07:47:39.078Z,37.50
2022-11-10T07:50:25.790Z,42.00
2022-11-10T07:53:14.741Z,38.17
2022-11-10T07:56:01.324Z,33.42
2022-11-10T07:58:49.613Z,39.72
2022-11-10T08:01:36.012Z,39.10
2022-11-10T08:04:22.684Z,29.30
2022-11-10T08:07:09.631Z,33.60
2022-11-10T08:09:56.201Z,32.10
2022-11-10T08:12:42.867Z,30.88
2022-11-10T08:15:32.465Z,40.00
2022-11-10T08:18:20.807Z,35.63
2022-11-10T08:21:07.624Z,32.80
2022-11-10T08:23:54.022Z,27.83
2022-11-10T08:26:40.513Z,29.20
2022-11-10T08:29:27.139Z,32.83
2022-11-10T08:32:15.875Z,40.40
2022-11-10T08:35:02.803Z,33.22
2022-11-10T08:37:49.812Z,32.80
2022-11-10T08:40:36.886Z,41.25
2022-11-10T08:43:23.777Z,34.90
2022-11-10T08:46:10.973Z,30.52
2022-11-10T08:48:58.872Z,39.13
2022-11-10T08:51:45.545Z,35.42
2022-11-10T08:54:32.594Z,34.45
2022-11-10T08:57:19.232Z,35.72
2022-11-10T09:00:06.879Z,31.73
2022-11-10T09:02:53.684Z,36.83
2022-11-10T09:05:43.450Z,37.20
2022-11-10T09:08:30.348Z,27.80
2022-11-10T09:11:16.784Z,30.60
2022-11-10T09:14:03.497Z,39.90
2022-11-10T09:16:50.062Z,31.30
2022-11-10T09:19:36.884Z,34.85
2022-11-10T09:22:24.566Z,29.00
2022-11-10T09:25:11.212Z,34.97
2022-11-10T09:27:57.937Z,38.15
2022-11-10T09:30:46.561Z,28.38
2022-11-10T09:33:33.422Z,37.35
2022-11-10T09:36:20.101Z,40.22
2022-11-10T09:39:08.271Z,45.78
2022-11-10T09:41:56.537Z,36.45
2022-11-10T09:44:51.998Z,40.25
2022-11-10T09:47:57.525Z,38.35
2022-11-10T09:50:50.384Z,34.55
2022-11-10T09:53:42.381Z,45.28
2022-11-10T09:56:34.027Z,44.47
2022-11-10T09:59:27.434Z,44.72
2022-11-10T10:02:23.583Z,45.90
2022-11-10T10:05:34.890Z,38.15
2022-11-10T10:08:31.027Z,38.25
2022-11-10T10:11:32.479Z,40.00
2022-11-10T10:14:36.024Z,35.45
2022-11-10T10:17:27.864Z,31.67
2022-11-10T10:20:20.967Z,32.33
2022-11-10T10:23:19.203Z,26.35
2022-11-10T10:26:06.101Z,38.85
2022-11-10T10:28:53.114Z,43.72
2022-11-10T10:31:44.315Z,43.50
2022-11-10T10:34:34.460Z,34.28
2022-11-10T10:37:26.477Z,35.45
2022-11-10T10:40:17.508Z,35.20
2022-11-10T10:43:05.418Z,39.50
2022-11-10T10:46:06.782Z,42.78
2022-11-10T10:49:28.035Z,39.75
2022-11-10T10:52:17.823Z,47.10
2022-11-10T10:55:08.436Z,38.13
2022-11-10T10:58:01.181Z,41.35
2022-11-10T11:00:49.638Z,44.85
2022-11-10T11:03:42.921Z,36.25
2022-11-10T11:06:31.892Z,35.78
2022-11-10T11:09:20.866Z,36.28
2022-11-10T11:12:09.841Z,35.47
2022-11-10T11:15:14.623Z,34.85
2022-11-10T11:18:02.756Z,35.22
2022-11-10T11:20:58.412Z,37.13
2022-11-10T11:24:01.237Z,33.78
2022-11-10T11:26:56.627Z,31.45
2022-11-10T11:29:59.986Z,30.80
2022-11-10T11:33:19.319Z,38.03
2022-11-10T11:36:15.478Z,42.03
2022-11-10T11:39:16.720Z,44.53
2022-11-10T11:42:15.260Z,40.95
2022-11-10T11:45:17.804Z,37.95
2022-11-10T11:48:45.863Z,43.03
2022-11-10T11:51:39.388Z,39.58
2022-11-10T11:54:42.441Z,43.35
2022-11-10T11:57:41.262Z,34.60
2022-11-10T12:00:30.132Z,43.40
2022-11-10T12:03:33.087Z,42.17
2022-11-10T12:06:34.175Z,39.38
2022-11-10T12:09:29.051Z,30.02
2022-11-10T12:12:31.680Z,34.33
2022-11-10T12:15:29.970Z,33.63
2022-11-10T12:18:31.692Z,33.05
2022-11-10T12:21:26.203Z,41.83
2022-11-10T12:24:29.146Z,42.25
2022-11-10T12:27:22.428Z,36.17
2022-11-10T12:30:12.997Z,33.78
2022-11-10T12:33:05.219Z,42.20
2022-11-10T12:35:54.907Z,43.33
2022-11-10T12:38:47.199Z,38.80
2022-11-10T12:41:42.842Z,33.75
2022-11-10T12:44:36.468Z,47.53
2022-11-10T12:47:25.610Z,40.35
2022-11-10T12:50:32.241Z,39.42
2022-11-10T12:53:23.633Z,40.35
2022-11-10T12:56:19.669Z,33.05
2022-11-10T12:59:25.446Z,47.75
2022-11-10T13:02:28.405Z,35.20
2022-11-10T13:05:33.466Z,38.00
2022-11-10T13:08:32.985Z,38.05
2022-11-10T13:11:26.734Z,40.17
2022-11-10T13:14:23.855Z,42.97
2022-11-10T13:17:12.170Z,36.60
2022-11-10T13:20:20.826Z,38.45
2022-11-10T13:23:26.248Z,41.03
2022-11-10T13:26:33.154Z,38.88
2022-11-10T13:29:32.206Z,28.80
2022-11-10T13:32:30.846Z,29.10
2022-11-10T13:35:56.014Z,38.10
2022-11-10T13:38:44.177Z,41.55
2022-11-10T13:41:33.671Z,31.40
2022-11-10T13:44:27.978Z,31.33
2022-11-10T13:47:42.576Z,23.35
2022-11-10T13:50:41.313Z,28.73
2022-11-10T13:53:42.205Z,32.00
2022-11-10T13:56:42.504Z,29.70
2022-11-10T13:59:33.964Z,25.20
2022-11-10T14:03:00.901Z,33.55
2022-11-10T14:06:13.852Z,34.97
2022-11-10T14:09:07.206Z,32.28
2022-11-10T14:11:59.169Z,30.55
2022-11-10T14:14:53.695Z,33.20
2022-11-10T14:17:45.186Z,25.95
2022-11-10T14:20:44.424Z,28.58
2022-11-10T14:23:35.504Z,35.10
2022-11-10T14:26:28.846Z,29.42
2022-11-10T14:29:34.513Z,28.15
2022-11-10T14:32:24.253Z,32.58
2022-11-10T14:35:20.955Z,27.92
2022-11-10T14:38:20.409Z,31.63
2022-11-10T14:41:15.547Z,25.20
2022-11-10T14:44:05.212Z,23.38
2022-11-10T14:46:52.747Z,25.27
2022-11-10T14:49:39.562Z,26.05
2022-11-10T14:52:26.077Z,23.63
2022-11-10T14:55:18.458Z,29.50
2022-11-10T14:58:12.310Z,25.65
2022-11-10T15:01:01.389Z,26.05
2022-11-10T15:03:48.364Z,34.08
2022-11-10T15:06:35.539Z,27.30
2022-11-10T15:09:28.111Z,33.80
2022-11-10T15:12:24.318Z,27.65
2022-11-10T15:15:20.906Z,34.72
2022-11-10T15:18:27.971Z,28.92
2022-11-10T15:21:16.100Z,27.52
2022-11-10T15:24:06.516Z,26.75
2022-11-10T15:26:54.291Z,26.55
2022-11-10T15:29:41.183Z,26.98
2022-11-10T15:32:34.721Z,28.73
2022-11-10T15:35:31.705Z,29.67
2022-11-10T15:38:31.486Z,26.90
2022-11-10T15:41:27.519Z,24.92
2022-11-10T15:44:16.033Z,29.05
2022-11-10T15:47:02.427Z,28.98
2022-11-10T15:49:49.112Z,28.58
2022-11-10T15:52:39.426Z,29.30
2022-11-10T15:55:25.901Z,28.55
2022-11-10T15:58:16.651Z,33.42
2022-11-10T16:01:03.556Z,29.38
2022-11-10T16:03:50.389Z,30.83
2022-11-10T16:06:37.576Z,32.88
2022-11-10T16:09:25.702Z,26.83
2022-11-10T16:12:18.687Z,31.92
2022-11-10T16:15:06.292Z,32.80
2022-11-10T16:17:52.716Z,39.67
2022-11-10T16:20:39.436Z,40.85
2022-11-10T16:23:27.049Z,36.05
2022-11-10T16:26:17.224Z,36.08
2022-11-10T16:29:04.322Z,46.85
2022-11-10T16:31:51.050Z,41.22
2022-11-10T16:34:37.743Z,41.47
2022-11-10T16:37:25.987Z,41.88
2022-11-10T16:40:15.686Z,36.38
2022-11-10T16:43:03.511Z,32.30
2022-11-10T16:45:52.392Z,35.35
2022-11-10T16:48:38.824Z,29.50
2022-11-10T16:51:29.710Z,37.55
2022-11-10T16:54:16.924Z,38.20
2022-11-10T16:57:03.585Z,32.72
2022-11-10T16:59:51.278Z,35.88
2022-11-10T17:02:39.786Z,40.58
2022-11-10T17:05:26.641Z,33.95
2022-11-10T17:08:22.850Z,34.15
2022-11-10T17:11:11.469Z,33.70
2022-11-10T17:13:57.952Z,29.88
2022-11-10T17:16:51.180Z,30.35
2022-11-10T17:19:37.487Z,31.55
2022-11-10T17:22:25.445Z,29.05
2022-11-10T17:25:16.623Z,28.90
2022-11-10T17:28:03.552Z,24.50
2022-11-10T17:30:52.405Z,27.92
2022-11-10T17:33:40.366Z,28.15
2022-11-10T17:36:27.142Z,31.80
2022-11-10T17:39:15.526Z,29.02
2022-11-10T17:42:03.072Z,23.48
2022-11-10T17:44:49.747Z,25.05
2022-11-10T17:47:37.488Z,25.27
2022-11-10T17:50:25.774Z,26.10
2022-11-10T17:53:19.502Z,24.85
2022-11-10T17:56:06.744Z,26.77
2022-11-10T17:58:54.208Z,25.50
2022-11-10T18:01:40.760Z,28.48
2022-11-10T18:04:29.648Z,24.35
2022-11-10T18:07:17.632Z,29.85
2022-11-10T18:10:06.283Z,29.67
2022-11-10T18:12:55.714Z,36.38
2022-11-10T18:15:45.515Z,26.02
2022-11-10T18:18:32.102Z,31.63
2022-11-10T18:21:18.832Z,27.27
2022-11-10T18:24:08.343Z,29.83
2022-11-10T18:26:58.878Z,26.48
2022-11-10T18:29:45.325Z,30.58
2022-11-10T18:32:32.253Z,25.63
2022-11-10T18:35:18.789Z,34.13
2022-11-10T18:38:06.442Z,29.60
2022-11-10T18:41:17.926Z,30.02
2022-11-10T18:44:04.621Z,30.20
2022-11-10T18:46:51.237Z,31.98
2022-11-10T18:49:37.685Z,29.40
2022-11-10T18:52:24.282Z,42.78
2022-11-10T18:55:12.203Z,35.67
2022-11-10T18:57:59.883Z,34.88
2022-11-10T19:00:46.791Z,30.23
2022-11-10T19:03:33.363Z,32.50
2022-11-10T19:06:20.105Z,28.33
2022-11-10T19:09:06.949Z,31.23
2022-11-10T19:11:53.684Z,28.20
2022-11-10T19:14:42.684Z,35.70
2022-11-10T19:17:29.202Z,28.58
2022-11-10T19:20:16.482Z,30.88
2022-11-10T19:23:02.837Z,33.42
2022-11-10T19:25:49.632Z,32.53
2022-11-10T19:28:36.448Z,30.10
2022-11-10T19:31:25.425Z,29.40
2022-11-10T19:34:11.983Z,32.95
2022-11-10T19:36:58.519Z,32.33
2022-11-10T19:39:44.996Z,32.97
2022-11-10T19:42:31.950Z,25.88
2022-11-10T19:45:18.430Z,27.33
2022-11-10T19:48:07.996Z,30.67
2022-11-10T19:50:55.416Z,26.60
2022-11-10T19:53:42.412Z,26.13
2022-11-10T19:56:31.864Z,26.10
2022-11-10T19:59:21.015Z,30.45
2022-11-10T20:02:08.357Z,31.73
2022-11-10T20:05:16.299Z,25.70
2022-11-10T20:08:11.751Z,29.63
2022-11-10T20:11:01.211Z,28.92
2022-11-10T20:13:54.425Z,24.83
2022-11-10T20:16:43.014Z,28.42
2022-11-10T20:19:30.996Z,23.73
2022-11-10T20:22:19.126Z,28.15
2022-11-10T20:25:08.932Z,28.00
2022-11-10T20:27:55.866Z,27.15
2022-11-10T20:30:45.966Z,21.63
2022-11-10T20:33:33.598Z,22.90
2022-11-10T20:36:24.314Z,25.70
2022-11-10T20:39:15.355Z,22.85
2022-11-10T20:42:01.993Z,23.50
2022-11-10T20:44:48.609Z,25.20
2022-11-10T20:47:35.382Z,21.40
2022-11-10T20:50:24.511Z,21.27
2022-11-10T20:53:13.065Z,20.77
2022-11-10T20:56:02.556Z,27.92
2022-11-10T20:58:51.791Z,21.83
2022-11-10T21:01:38.516Z,23.83
2022-11-10T21:04:25.554Z,25.80
2022-11-10T21:07:12.254Z,25.88
2022-11-10T21:09:58.920Z,23.83
2022-11-10T21:12:53.115Z,22.45
2022-11-10T21:15:40.729Z,24.30
2022-11-10T21:18:30.881Z,25.33
2022-11-10T21:21:22.914Z,26.15
2022-11-10T21:24:10.736Z,22.52
2022-11-10T21:26:57.718Z,50.75
2022-11-10T21:29:46.385Z,23.90
2022-11-10T21:32:33.044Z,26.95
2022-11-10T21:35:20.953Z,22.90
2022-11-10T21:38:07.401Z,21.05
2022-11-10T21:40:54.579Z,35.28
2022-11-10T21:43:42.138Z,24.20
2022-11-10T21:46:30.384Z,22.92
2022-11-10T21:49:17.457Z,23.65
2022-11-10T21:52:03.876Z,21.77
2022-11-10T21:54:50.425Z,34.30
2022-11-10T21:57:37.070Z,29.73
2022-11-10T22:00:23.690Z,19.98
2022-11-10T22:03:11.290Z,26.98
2022-11-10T22:06:02.727Z,33.22
2022-11-10T22:08:49.704Z,33.40
2022-11-10T22:11:53.842Z,35.83
2022-11-10T22:14:58.255Z,23.58
2022-11-10T22:18:02.567Z,28.88
2022-11-10T22:20:51.497Z,24.23
2022-11-10T22:23:55.889Z,30.88
2022-11-10T22:26:42.453Z,25.70
2022-11-10T22:29:31.926Z,29.73
2022-11-10T22:32:18.510Z,22.30
2022-11-10T22:35:05.946Z,30.17
2022-11-10T22:37:54.148Z,26.08
2022-11-10T22:40:58.194Z,24.58
2022-11-10T22:44:02.506Z,26.90
2022-11-10T22:46:51.022Z,23.50
2022-11-10T22:49:40.637Z,28.70
2022-11-10T22:52:27.120Z,26.20
2022-11-10T22:55:15.298Z,26.13
2022-11-10T22:58:01.676Z,26.55
2022-11-10T23:00:48.708Z,27.10
2022-11-10T23:03:35.981Z,25.10
2022-11-10T23:06:22.694Z,24.10
2022-11-10T23:09:09.749Z,25.60
2022-11-10T23:11:57.478Z,28.40
2022-11-10T23:14:44.022Z,26.73
2022-11-10T23:17:30.655Z,28.52
2022-11-10T23:20:17.082Z,21.75
2022-11-10T23:23:03.726Z,25.05
2022-11-10T23:25:57.270Z,21.35
2022-11-10T23:28:46.828Z,22.20
2022-11-10T23:31:33.417Z,24.80
2022-11-10T23:34:20.013Z,30.52
2022-11-10T23:37:06.561Z,24.20
2022-11-10T23:39:53.285Z,20.92
2022-11-10T23:42:40.177Z,26.20
2022-11-10T23:45:46.189Z,25.35
2022-11-10T23:48:34.849Z,23.40
2022-11-10T23:51:21.340Z,19.15
2022-11-10T23:54:07.536Z,24.90
2022-11-10T23:56:57.186Z,23.65
2022-11-10T23:59:43.786Z,23.77
